sensor_id;sensor_type;location;lat;lon;timestamp;pressure;altitude;pressure_sealevel;temperature;humidity
10145;BME280;5113;41.822;23.564;2023-07-02T00:02:05;-11424.72;;;17.71;100.00
10145;BME280;5113;41.822;23.564;2023-07-02T00:05:11;-11435.69;;;18.10;100.00
10145;BME280;5113;41.822;23.564;2023-07-02T00:08:18;-11424.00;;;17.68;100.00
10145;BME280;5113;41.822;23.564;2023-07-02T00:11:24;-11426.25;;;17.76;100.00
10145;BME280;5113;41.822;23.564;2023-07-02T00:14:31;-11427.94;;;17.83;100.00
10145;BME280;5113;41.822;23.564;2023-07-02T00:17:38;-11433.88;;;18.04;100.00
10145;BME280;5113;41.822;23.564;2023-07-02T00:20:45;-11429.22;;;17.87;100.00
10145;BME280;5113;41.822;23.564;2023-07-02T00:23:51;-11430.50;;;17.92;100.00
10145;BME280;5113;41.822;23.564;2023-07-02T00:26:58;-11435.84;;;18.11;100.00
10145;BME280;5113;41.822;23.564;2023-07-02T00:30:06;-11438.66;;;18.21;100.00
10145;BME280;5113;41.822;23.564;2023-07-02T00:33:15;-11431.34;;;17.95;100.00
10145;BME280;5113;41.822;23.564;2023-07-02T00:36:21;-11429.66;;;17.89;100.00
10145;BME280;5113;41.822;23.564;2023-07-02T00:39:27;-11428.81;;;17.86;100.00
10145;BME280;5113;41.822;23.564;2023-07-02T00:42:34;-11428.66;;;17.85;100.00
10145;BME280;5113;41.822;23.564;2023-07-02T00:45:42;-11424.00;;;17.68;100.00
10145;BME280;5113;41.822;23.564;2023-07-02T00:48:49;-11414.41;;;17.34;100.00
10145;BME280;5113;41.822;23.564;2023-07-02T00:51:56;-11417.09;;;17.43;100.00
10145;BME280;5113;41.822;23.564;2023-07-02T00:55:03;-11420.19;;;17.55;100.00
10145;BME280;5113;41.822;23.564;2023-07-02T00:58:09;-11417.09;;;17.43;100.00
10145;BME280;5113;41.822;23.564;2023-07-02T01:01:17;-11425.69;;;17.74;100.00
10145;BME280;5113;41.822;23.564;2023-07-02T01:04:23;-11406.81;;;17.06;100.00
10145;BME280;5113;41.822;23.564;2023-07-02T01:07:32;-11405.97;;;17.03;100.00
10145;BME280;5113;41.822;23.564;2023-07-02T01:10:38;-11419.63;;;17.53;100.00
10145;BME280;5113;41.822;23.564;2023-07-02T01:13:44;-11416.25;;;17.40;100.00
10145;BME280;5113;41.822;23.564;2023-07-02T01:16:53;-11418.09;;;17.47;100.00
10145;BME280;5113;41.822;23.564;2023-07-02T01:20:01;-11410.19;;;17.19;100.00
10145;BME280;5113;41.822;23.564;2023-07-02T01:23:12;-11423.31;;;17.66;100.00
10145;BME280;5113;41.822;23.564;2023-07-02T01:26:19;-11422.59;;;17.63;100.00
10145;BME280;5113;41.822;23.564;2023-07-02T01:29:25;-11420.91;;;17.57;100.00
10145;BME280;5113;41.822;23.564;2023-07-02T01:32:31;-11419.50;;;17.52;100.00
10145;BME280;5113;41.822;23.564;2023-07-02T01:35:38;-11424.72;;;17.71;100.00
10145;BME280;5113;41.822;23.564;2023-07-02T01:38:45;-11417.94;;;17.46;100.00
10145;BME280;5113;41.822;23.564;2023-07-02T01:41:52;-11419.91;;;17.54;100.00
10145;BME280;5113;41.822;23.564;2023-07-02T01:44:58;-11425.13;;;17.72;100.00
10145;BME280;5113;41.822;23.564;2023-07-02T01:48:05;-11429.38;;;17.88;100.00
10145;BME280;5113;41.822;23.564;2023-07-02T01:51:12;-11426.69;;;17.78;100.00
10145;BME280;5113;41.822;23.564;2023-07-02T01:54:22;-11423.72;;;17.67;100.00
10145;BME280;5113;41.822;23.564;2023-07-02T01:57:28;-11419.78;;;17.53;100.00
10145;BME280;5113;41.822;23.564;2023-07-02T02:00:35;-11413.16;;;17.29;100.00
10145;BME280;5113;41.822;23.564;2023-07-02T02:03:42;-11420.63;;;17.56;100.00
10145;BME280;5113;41.822;23.564;2023-07-02T02:06:50;-11424.28;;;17.69;100.00
10145;BME280;5113;41.822;23.564;2023-07-02T02:09:57;-11422.03;;;17.61;100.00
10145;BME280;5113;41.822;23.564;2023-07-02T02:13:03;-11422.31;;;17.62;100.00
10145;BME280;5113;41.822;23.564;2023-07-02T02:16:09;-11414.97;;;17.36;100.00
10145;BME280;5113;41.822;23.564;2023-07-02T02:19:16;-11411.31;;;17.23;100.00
10145;BME280;5113;41.822;23.564;2023-07-02T02:22:24;-11420.91;;;17.57;100.00
10145;BME280;5113;41.822;23.564;2023-07-02T02:25:31;-11421.19;;;17.58;100.00
10145;BME280;5113;41.822;23.564;2023-07-02T02:28:37;-11416.38;;;17.41;100.00
10145;BME280;5113;41.822;23.564;2023-07-02T02:31:43;-11415.25;;;17.37;100.00
10145;BME280;5113;41.822;23.564;2023-07-02T02:34:50;-11409.06;;;17.14;100.00
10145;BME280;5113;41.822;23.564;2023-07-02T02:38:01;-11417.78;;;17.46;100.00
10145;BME280;5113;41.822;23.564;2023-07-02T02:41:07;-11411.88;;;17.25;100.00
10145;BME280;5113;41.822;23.564;2023-07-02T02:44:14;-11413.00;;;17.29;100.00
10145;BME280;5113;41.822;23.564;2023-07-02T02:47:20;-11404.56;;;16.98;100.00
10145;BME280;5113;41.822;23.564;2023-07-02T02:50:26;-11405.81;;;17.03;100.00
10145;BME280;5113;41.822;23.564;2023-07-02T02:53:34;-11412.72;;;17.28;100.00
10145;BME280;5113;41.822;23.564;2023-07-02T02:56:42;-11410.75;;;17.21;100.00
10145;BME280;5113;41.822;23.564;2023-07-02T02:59:48;-11410.47;;;17.20;100.00
10145;BME280;5113;41.822;23.564;2023-07-02T03:02:54;-11405.81;;;17.03;100.00
10145;BME280;5113;41.822;23.564;2023-07-02T03:06:01;-11407.66;;;17.09;100.00
10145;BME280;5113;41.822;23.564;2023-07-02T03:09:08;-11410.91;;;17.21;100.00
10145;BME280;5113;41.822;23.564;2023-07-02T03:12:15;-11409.34;;;17.15;100.00
10145;BME280;5113;41.822;23.564;2023-07-02T03:15:21;-11401.72;;;16.88;100.00
10145;BME280;5113;41.822;23.564;2023-07-02T03:18:27;-11410.06;;;17.18;100.00
10145;BME280;5113;41.822;23.564;2023-07-02T03:21:33;-11401.59;;;16.88;100.00
10145;BME280;5113;41.822;23.564;2023-07-02T03:24:40;-11401.44;;;16.87;100.00
10145;BME280;5113;41.822;23.564;2023-07-02T03:27:47;-11400.59;;;16.84;100.00
10145;BME280;5113;41.822;23.564;2023-07-02T03:30:53;-11399.19;;;16.79;100.00
10145;BME280;5113;41.822;23.564;2023-07-02T03:34:02;-11402.00;;;16.89;100.00
10145;BME280;5113;41.822;23.564;2023-07-02T03:37:09;-11398.34;;;16.76;100.00
10145;BME280;5113;41.822;23.564;2023-07-02T03:40:17;-11395.81;;;16.67;100.00
10145;BME280;5113;41.822;23.564;2023-07-02T03:43:23;-11400.31;;;16.83;100.00
10145;BME280;5113;41.822;23.564;2023-07-02T03:46:30;-11396.81;;;16.70;100.00
10145;BME280;5113;41.822;23.564;2023-07-02T03:49:37;-11382.72;;;16.19;100.00
10145;BME280;5113;41.822;23.564;2023-07-02T03:52:43;-11383.69;;;16.23;100.00
10145;BME280;5113;41.822;23.564;2023-07-02T03:55:50;-11392.16;;;16.54;100.00
10145;BME280;5113;41.822;23.564;2023-07-02T03:58:56;-11396.94;;;16.71;100.00
10145;BME280;5113;41.822;23.564;2023-07-02T04:02:03;-11398.63;;;16.77;100.00
10145;BME280;5113;41.822;23.564;2023-07-02T04:05:10;-11400.47;;;16.83;100.00
10145;BME280;5113;41.822;23.564;2023-07-02T04:08:16;-11386.78;;;16.34;100.00
10145;BME280;5113;41.822;23.564;2023-07-02T04:11:24;-11390.88;;;16.49;100.00
10145;BME280;5113;41.822;23.564;2023-07-02T04:14:30;-11403.72;;;16.95;100.00
10145;BME280;5113;41.822;23.564;2023-07-02T04:17:36;-11402.00;;;16.89;100.00
10145;BME280;5113;41.822;23.564;2023-07-02T04:20:42;-11404.84;;;16.99;100.00
10145;BME280;5113;41.822;23.564;2023-07-02T04:23:48;-11400.31;;;16.83;100.00
10145;BME280;5113;41.822;23.564;2023-07-02T04:26:56;-11399.19;;;16.79;100.00
10145;BME280;5113;41.822;23.564;2023-07-02T04:30:24;-11396.81;;;16.70;100.00
10145;BME280;5113;41.822;23.564;2023-07-02T04:33:31;-11396.25;;;16.68;100.00
10145;BME280;5113;41.822;23.564;2023-07-02T04:36:41;-11401.16;;;16.86;100.00
10145;BME280;5113;41.822;23.564;2023-07-02T04:39:47;-11407.09;;;17.07;100.00
10145;BME280;5113;41.822;23.564;2023-07-02T04:42:54;-11408.22;;;17.11;100.00
10145;BME280;5113;41.822;23.564;2023-07-02T04:46:03;-11412.16;;;17.26;100.00
10145;BME280;5113;41.822;23.564;2023-07-02T04:49:12;-11411.75;;;17.24;100.00
10145;BME280;5113;41.822;23.564;2023-07-02T04:52:19;-11409.91;;;17.17;100.00
10145;BME280;5113;41.822;23.564;2023-07-02T04:55:26;-11413.00;;;17.29;100.00
10145;BME280;5113;41.822;23.564;2023-07-02T04:58:34;-11409.63;;;17.16;100.00
10145;BME280;5113;41.822;23.564;2023-07-02T05:01:40;-11419.34;;;17.52;100.00
10145;BME280;5113;41.822;23.564;2023-07-02T05:04:47;-11424.56;;;17.70;100.00
10145;BME280;5113;41.822;23.564;2023-07-02T05:07:53;-11428.81;;;17.86;100.00
10145;BME280;5113;41.822;23.564;2023-07-02T05:10:59;-11430.78;;;17.93;100.00
10145;BME280;5113;41.822;23.564;2023-07-02T05:14:07;-11435.84;;;18.11;100.00
10145;BME280;5113;41.822;23.564;2023-07-02T05:17:13;-11439.66;;;18.25;100.00
10145;BME280;5113;41.822;23.564;2023-07-02T05:20:20;-11439.50;;;18.24;100.00
10145;BME280;5113;41.822;23.564;2023-07-02T05:23:26;-11441.75;;;18.32;100.00
10145;BME280;5113;41.822;23.564;2023-07-02T05:26:33;-11436.28;;;18.12;100.00
10145;BME280;5113;41.822;23.564;2023-07-02T05:29:40;-11437.25;;;18.16;100.00
10145;BME280;5113;41.822;23.564;2023-07-02T05:32:47;-11444.59;;;18.42;100.00
10145;BME280;5113;41.822;23.564;2023-07-02T05:35:53;-11446.84;;;18.51;100.00
10145;BME280;5113;41.822;23.564;2023-07-02T05:38:59;-11455.72;;;18.83;100.00
10145;BME280;5113;41.822;23.564;2023-07-02T05:42:05;-11468.28;;;19.28;100.00
10145;BME280;5113;41.822;23.564;2023-07-02T05:45:13;-11470.25;;;19.35;100.00
10145;BME280;5113;41.822;23.564;2023-07-02T05:48:19;-11469.97;;;19.34;100.00
10145;BME280;5113;41.822;23.564;2023-07-02T05:51:25;-11457.00;;;18.87;100.00
10145;BME280;5113;41.822;23.564;2023-07-02T05:54:31;-11493.94;;;20.20;100.00
10145;BME280;5113;41.822;23.564;2023-07-02T05:57:38;-11501.84;;;20.49;100.00
10145;BME280;5113;41.822;23.564;2023-07-02T06:00:45;-11493.38;;;20.18;100.00
10145;BME280;5113;41.822;23.564;2023-07-02T06:03:54;-11482.66;;;19.79;100.00
10145;BME280;5113;41.822;23.564;2023-07-02T06:07:01;-11487.47;;;19.97;100.00
10145;BME280;5113;41.822;23.564;2023-07-02T06:10:08;-11495.63;;;20.26;100.00
10145;BME280;5113;41.822;23.564;2023-07-02T06:13:15;-11486.31;;;19.93;100.00
10145;BME280;5113;41.822;23.564;2023-07-02T06:16:22;-11486.91;;;19.95;100.00
10145;BME280;5113;41.822;23.564;2023-07-02T06:19:29;-11484.06;;;19.85;100.00
10145;BME280;5113;41.822;23.564;2023-07-02T06:22:35;-11499.31;;;20.39;100.00
10145;BME280;5113;41.822;23.564;2023-07-02T06:25:41;-11488.88;;;20.02;100.00
10145;BME280;5113;41.822;23.564;2023-07-02T06:28:48;-11502.41;;;20.51;100.00
10145;BME280;5113;41.822;23.564;2023-07-02T06:31:55;-11503.69;;;20.55;100.00
10145;BME280;5113;41.822;23.564;2023-07-02T06:35:01;-11517.50;;;21.05;100.00
10145;BME280;5113;41.822;23.564;2023-07-02T06:38:07;-11506.34;;;20.65;100.00
10145;BME280;5113;41.822;23.564;2023-07-02T06:41:14;-11500.44;;;20.43;100.00
10145;BME280;5113;41.822;23.564;2023-07-02T06:44:20;-11513.13;;;20.89;100.00
10145;BME280;5113;41.822;23.564;2023-07-02T06:47:28;-11516.09;;;21.00;100.00
10145;BME280;5113;41.822;23.564;2023-07-02T06:50:35;-11517.06;;;21.03;100.00
10145;BME280;5113;41.822;23.564;2023-07-02T06:53:41;-11538.81;;;21.82;100.00
10145;BME280;5113;41.822;23.564;2023-07-02T06:56:48;-11559.69;;;22.57;100.00
10145;BME280;5113;41.822;23.564;2023-07-02T06:59:57;-11564.63;;;22.74;100.00
10145;BME280;5113;41.822;23.564;2023-07-02T07:03:06;-11533.16;;;21.61;100.00
10145;BME280;5113;41.822;23.564;2023-07-02T07:06:13;-11527.25;;;21.40;100.00
10145;BME280;5113;41.822;23.564;2023-07-02T07:09:20;-11554.06;;;22.36;100.00
10145;BME280;5113;41.822;23.564;2023-07-02T07:12:26;-11567.88;;;22.86;100.00
10145;BME280;5113;41.822;23.564;2023-07-02T07:15:34;-11583.69;;;23.43;100.00
10145;BME280;5113;41.822;23.564;2023-07-02T07:18:43;-11563.34;;;22.70;100.00
10145;BME280;5113;41.822;23.564;2023-07-02T07:21:50;-11547.84;;;22.14;100.00
10145;BME280;5113;41.822;23.564;2023-07-02T07:24:56;-11537.25;;;21.76;100.00
10145;BME280;5113;41.822;23.564;2023-07-02T07:28:02;-11539.78;;;21.85;100.00
10145;BME280;5113;41.822;23.564;2023-07-02T07:31:08;-11543.59;;;21.99;100.00
10145;BME280;5113;41.822;23.564;2023-07-02T07:34:15;-11503.97;;;20.56;100.00
10145;BME280;5113;41.822;23.564;2023-07-02T07:37:22;-11525.25;;;21.33;100.00
10145;BME280;5113;41.822;23.564;2023-07-02T07:40:29;-11503.81;;;20.56;100.00
10145;BME280;5113;41.822;23.564;2023-07-02T07:43:35;-11508.47;;;20.72;100.00
10145;BME280;5113;41.822;23.564;2023-07-02T07:46:41;-11498.59;;;20.37;100.00
10145;BME280;5113;41.822;23.564;2023-07-02T07:49:49;-11483.50;;;19.83;100.00
10145;BME280;5113;41.822;23.564;2023-07-02T07:52:55;-11475.34;;;19.53;100.00
10145;BME280;5113;41.822;23.564;2023-07-02T07:56:02;-11479.69;;;19.69;100.00
10145;BME280;5113;41.822;23.564;2023-07-02T07:59:08;-11468.00;;;19.27;100.00
10145;BME280;5113;41.822;23.564;2023-07-02T08:02:16;-11460.53;;;19.00;100.00
10145;BME280;5113;41.822;23.564;2023-07-02T08:05:24;-11480.97;;;19.73;100.00
10145;BME280;5113;41.822;23.564;2023-07-02T08:08:30;-11482.09;;;19.77;100.00
10145;BME280;5113;41.822;23.564;2023-07-02T08:11:37;-11479.28;;;19.67;100.00
10145;BME280;5113;41.822;23.564;2023-07-02T08:14:43;-11486.03;;;19.92;100.00
10145;BME280;5113;41.822;23.564;2023-07-02T08:17:49;-11486.47;;;19.93;100.00
10145;BME280;5113;41.822;23.564;2023-07-02T08:21:00;-11500.16;;;20.42;100.00
10145;BME280;5113;41.822;23.564;2023-07-02T08:24:06;-11481.97;;;19.77;100.00
10145;BME280;5113;41.822;23.564;2023-07-02T08:27:12;-11481.81;;;19.76;100.00
10145;BME280;5113;41.822;23.564;2023-07-02T08:30:20;-11490.00;;;20.06;100.00
10145;BME280;5113;41.822;23.564;2023-07-02T08:33:27;-11507.78;;;20.70;100.00
10145;BME280;5113;41.822;23.564;2023-07-02T08:36:34;-11496.75;;;20.30;100.00
10145;BME280;5113;41.822;23.564;2023-07-02T08:39:41;-11505.09;;;20.60;100.00
10145;BME280;5113;41.822;23.564;2023-07-02T08:42:47;-11517.06;;;21.03;100.00
10145;BME280;5113;41.822;23.564;2023-07-02T08:45:53;-11520.19;;;21.15;100.00
10145;BME280;5113;41.822;23.564;2023-07-02T08:49:00;-11516.22;;;21.00;100.00
10145;BME280;5113;41.822;23.564;2023-07-02T08:52:07;-11524.41;;;21.30;100.00
10145;BME280;5113;41.822;23.564;2023-07-02T08:55:14;-11525.84;;;21.35;100.00
10145;BME280;5113;41.822;23.564;2023-07-02T08:58:19;-11503.81;;;20.56;100.00
10145;BME280;5113;41.822;23.564;2023-07-02T09:01:26;-11529.22;;;21.47;100.00
10145;BME280;5113;41.822;23.564;2023-07-02T09:04:32;-11509.75;;;20.77;100.00
10145;BME280;5113;41.822;23.564;2023-07-02T09:07:48;-11536.56;;;21.73;100.00
10145;BME280;5113;41.822;23.564;2023-07-02T09:11:08;-11549.53;;;22.20;100.00
10145;BME280;5113;41.822;23.564;2023-07-02T09:14:24;-11550.38;;;22.23;100.00
10145;BME280;5113;41.822;23.564;2023-07-02T09:17:32;-11561.81;;;22.64;100.00
10145;BME280;5113;41.822;23.564;2023-07-02T09:20:38;-11573.53;;;23.07;100.00
10145;BME280;5113;41.822;23.564;2023-07-02T09:23:46;-11619.97;;;24.74;97.81
10145;BME280;5113;41.822;23.564;2023-07-02T09:26:53;-11613.03;;;24.49;100.00
10145;BME280;5113;41.822;23.564;2023-07-02T09:30:06;-11619.81;;;24.73;100.00
10145;BME280;5113;41.822;23.564;2023-07-02T09:33:12;-11558.97;;;22.54;100.00
10145;BME280;5113;41.822;23.564;2023-07-02T09:36:18;-11582.84;;;23.40;100.00
10145;BME280;5113;41.822;23.564;2023-07-02T09:39:28;-11617.00;;;24.63;96.89
10145;BME280;5113;41.822;23.564;2023-07-02T09:42:35;-11619.81;;;24.73;95.46
10145;BME280;5113;41.822;23.564;2023-07-02T09:45:43;-11613.91;;;24.52;100.00
10145;BME280;5113;41.822;23.564;2023-07-02T09:48:50;-11601.47;;;24.07;100.00
10145;BME280;5113;41.822;23.564;2023-07-02T09:51:59;-11574.38;;;23.10;100.00
10145;BME280;5113;41.822;23.564;2023-07-02T09:55:08;-11596.94;;;23.91;100.00
10145;BME280;5113;41.822;23.564;2023-07-02T09:58:15;-11570.13;;;22.94;100.00
10145;BME280;5113;41.822;23.564;2023-07-02T10:01:22;-11630.56;;;25.12;98.53
10145;BME280;5113;41.822;23.564;2023-07-02T10:04:28;-11599.91;;;24.01;100.00
10145;BME280;5113;41.822;23.564;2023-07-02T10:07:45;-11607.41;;;24.28;100.00
10145;BME280;5113;41.822;23.564;2023-07-02T10:10:53;-11606.13;;;24.24;92.20
10145;BME280;5113;41.822;23.564;2023-07-02T10:14:00;-11610.78;;;24.41;92.59
10145;BME280;5113;41.822;23.564;2023-07-02T10:17:07;-11606.69;;;24.26;100.00
10145;BME280;5113;41.822;23.564;2023-07-02T10:20:13;-11607.69;;;24.29;100.00
10145;BME280;5113;41.822;23.564;2023-07-02T10:23:32;-11636.78;;;25.34;95.49
10145;BME280;5113;41.822;23.564;2023-07-02T10:26:51;-11674.75;;;26.71;81.91
10145;BME280;5113;41.822;23.564;2023-07-02T10:29:58;-11655.69;;;26.02;82.75
10145;BME280;5113;41.822;23.564;2023-07-02T10:33:08;-11658.38;;;26.12;82.97
10145;BME280;5113;41.822;23.564;2023-07-02T10:36:18;-11624.91;;;24.91;86.96
10145;BME280;5113;41.822;23.564;2023-07-02T10:39:25;-11599.91;;;24.01;97.14
10145;BME280;5113;41.822;23.564;2023-07-02T10:42:33;-11615.44;;;24.57;97.52
10145;BME280;5113;41.822;23.564;2023-07-02T10:45:40;-11603.44;;;24.14;92.81
10145;BME280;5113;41.822;23.564;2023-07-02T10:48:55;-11626.88;;;24.98;97.07
10145;BME280;5113;41.822;23.564;2023-07-02T10:52:03;-11640.72;;;25.48;96.32
10145;BME280;5113;41.822;23.564;2023-07-02T10:55:10;-11639.88;;;25.45;90.83
10145;BME280;5113;41.822;23.564;2023-07-02T10:58:23;-11626.59;;;24.97;96.58
10145;BME280;5113;41.822;23.564;2023-07-02T11:01:31;-11630.56;;;25.12;94.75
10145;BME280;5113;41.822;23.564;2023-07-02T11:04:38;-11612.91;;;24.48;87.12
10145;BME280;5113;41.822;23.564;2023-07-02T11:07:44;-11634.50;;;25.26;89.44
10145;BME280;5113;41.822;23.564;2023-07-02T11:10:50;-11618.41;;;24.68;81.94
10145;BME280;5113;41.822;23.564;2023-07-02T11:13:58;-11630.56;;;25.12;80.74
10145;BME280;5113;41.822;23.564;2023-07-02T11:17:06;-11635.22;;;25.28;78.17
10145;BME280;5113;41.822;23.564;2023-07-02T11:20:14;-11657.94;;;26.10;79.17
10145;BME280;5113;41.822;23.564;2023-07-02T11:23:21;-11633.81;;;25.23;75.67
10145;BME280;5113;41.822;23.564;2023-07-02T11:26:34;-11635.50;;;25.29;76.46
10145;BME280;5113;41.822;23.564;2023-07-02T11:29:42;-11623.50;;;24.86;79.21
10145;BME280;5113;41.822;23.564;2023-07-02T11:32:50;-11619.41;;;24.72;79.55
10145;BME280;5113;41.822;23.564;2023-07-02T11:35:56;-11644.66;;;25.62;75.74
10145;BME280;5113;41.822;23.564;2023-07-02T11:39:03;-11625.19;;;24.92;83.22
10145;BME280;5113;41.822;23.564;2023-07-02T11:42:10;-11619.81;;;24.73;80.43
10145;BME280;5113;41.822;23.564;2023-07-02T11:45:17;-11625.75;;;24.94;92.58
10145;BME280;5113;41.822;23.564;2023-07-02T11:48:23;-11639.44;;;25.44;78.06
10145;BME280;5113;41.822;23.564;2023-07-02T11:51:29;-11632.25;;;25.18;76.58
10145;BME280;5113;41.822;23.564;2023-07-02T11:54:36;-11646.09;;;25.67;80.35
10145;BME280;5113;41.822;23.564;2023-07-02T11:57:42;-11656.81;;;26.06;75.56
10145;BME280;5113;41.822;23.564;2023-07-02T12:00:53;-11622.66;;;24.83;72.34
10145;BME280;5113;41.822;23.564;2023-07-02T12:03:59;-11615.88;;;24.59;69.84
10145;BME280;5113;41.822;23.564;2023-07-02T12:07:05;-11617.00;;;24.63;79.16
10145;BME280;5113;41.822;23.564;2023-07-02T12:10:11;-11609.94;;;24.38;85.91
10145;BME280;5113;41.822;23.564;2023-07-02T12:13:18;-11623.63;;;24.87;88.79
10145;BME280;5113;41.822;23.564;2023-07-02T12:16:26;-11623.78;;;24.87;94.11
10145;BME280;5113;41.822;23.564;2023-07-02T12:19:33;-11607.13;;;24.27;89.88
10145;BME280;5113;41.822;23.564;2023-07-02T12:22:40;-11630.28;;;25.11;78.23
10145;BME280;5113;41.822;23.564;2023-07-02T12:25:46;-11637.34;;;25.36;81.80
10145;BME280;5113;41.822;23.564;2023-07-02T12:28:52;-11623.50;;;24.86;92.28
10145;BME280;5113;41.822;23.564;2023-07-02T12:32:00;-11637.34;;;25.36;90.42
10145;BME280;5113;41.822;23.564;2023-07-02T12:35:07;-11626.59;;;24.97;88.56
10145;BME280;5113;41.822;23.564;2023-07-02T12:38:14;-11646.66;;;25.70;82.61
10145;BME280;5113;41.822;23.564;2023-07-02T12:41:20;-11631.69;;;25.16;82.80
10145;BME280;5113;41.822;23.564;2023-07-02T12:44:26;-11635.50;;;25.29;93.18
10145;BME280;5113;41.822;23.564;2023-07-02T12:47:33;-11637.34;;;25.36;94.78
10145;BME280;5113;41.822;23.564;2023-07-02T12:50:40;-11637.63;;;25.37;87.82
10145;BME280;5113;41.822;23.564;2023-07-02T12:53:46;-11629.44;;;25.08;92.25
10145;BME280;5113;41.822;23.564;2023-07-02T12:56:52;-11610.22;;;24.39;100.00
10145;BME280;5113;41.822;23.564;2023-07-02T12:59:58;-11623.34;;;24.86;99.90
10145;BME280;5113;41.822;23.564;2023-07-02T13:03:10;-11619.25;;;24.71;98.05
10145;BME280;5113;41.822;23.564;2023-07-02T13:06:17;-11621.09;;;24.78;93.73
10145;BME280;5113;41.822;23.564;2023-07-02T13:09:23;-11641.56;;;25.51;92.62
10145;BME280;5113;41.822;23.564;2023-07-02T13:12:29;-11638.59;;;25.41;97.87
10145;BME280;5113;41.822;23.564;2023-07-02T13:15:35;-11629.56;;;25.08;92.78
10145;BME280;5113;41.822;23.564;2023-07-02T13:18:44;-11639.03;;;25.42;95.25
10145;BME280;5113;41.822;23.564;2023-07-02T13:21:51;-11642.97;;;25.56;93.80
10145;BME280;5113;41.822;23.564;2023-07-02T13:24:57;-11632.81;;;25.20;97.32
10145;BME280;5113;41.822;23.564;2023-07-02T13:28:03;-11623.91;;;24.88;86.97
10145;BME280;5113;41.822;23.564;2023-07-02T13:31:10;-11650.31;;;25.83;80.63
10145;BME280;5113;41.822;23.564;2023-07-02T13:34:17;-11645.53;;;25.65;85.52
10145;BME280;5113;41.822;23.564;2023-07-02T13:37:24;-11632.81;;;25.20;97.00
10145;BME280;5113;41.822;23.564;2023-07-02T13:40:30;-11643.25;;;25.57;85.13
10145;BME280;5113;41.822;23.564;2023-07-02T13:43:36;-11638.19;;;25.39;95.72
10145;BME280;5113;41.822;23.564;2023-07-02T13:46:43;-11636.50;;;25.33;96.02
10145;BME280;5113;41.822;23.564;2023-07-02T13:49:52;-11635.78;;;25.30;98.65
10145;BME280;5113;41.822;23.564;2023-07-02T13:52:58;-11649.75;;;25.81;93.52
10145;BME280;5113;41.822;23.564;2023-07-02T13:56:05;-11636.06;;;25.31;94.87
10145;BME280;5113;41.822;23.564;2023-07-02T13:59:14;-11651.47;;;25.87;92.60
10145;BME280;5113;41.822;23.564;2023-07-02T14:02:20;-11641.84;;;25.52;94.23
10145;BME280;5113;41.822;23.564;2023-07-02T14:05:27;-11668.13;;;26.47;91.16
10145;BME280;5113;41.822;23.564;2023-07-02T14:08:33;-11651.16;;;25.86;93.83
10145;BME280;5113;41.822;23.564;2023-07-02T14:11:40;-11642.41;;;25.54;92.89
10145;BME280;5113;41.822;23.564;2023-07-02T14:14:49;-11634.50;;;25.26;94.47
10145;BME280;5113;41.822;23.564;2023-07-02T14:17:55;-11632.09;;;25.17;93.10
10145;BME280;5113;41.822;23.564;2023-07-02T14:21:01;-11637.19;;;25.36;94.14
10145;BME280;5113;41.822;23.564;2023-07-02T14:24:08;-11637.47;;;25.37;93.30
10145;BME280;5113;41.822;23.564;2023-07-02T14:27:14;-11698.63;;;27.56;73.03
10145;BME280;5113;41.822;23.564;2023-07-02T14:30:22;-11683.94;;;27.04;60.40
10145;BME280;5113;41.822;23.564;2023-07-02T14:33:30;-11668.69;;;26.49;64.03
10145;BME280;5113;41.822;23.564;2023-07-02T14:36:37;-11680.69;;;26.92;58.59
10145;BME280;5113;41.822;23.564;2023-07-02T14:39:43;-11644.09;;;25.60;60.86
10145;BME280;5113;41.822;23.564;2023-07-02T14:43:09;-11644.66;;;25.62;59.37
10145;BME280;5113;41.822;23.564;2023-07-02T14:46:16;-11638.59;;;25.41;61.95
10145;BME280;5113;41.822;23.564;2023-07-02T14:49:23;-11651.03;;;25.85;60.88
10145;BME280;5113;41.822;23.564;2023-07-02T14:52:30;-11635.06;;;25.28;62.06
10145;BME280;5113;41.822;23.564;2023-07-02T14:55:36;-11646.78;;;25.70;62.50
10145;BME280;5113;41.822;23.564;2023-07-02T14:58:42;-11653.56;;;25.94;67.21
10145;BME280;5113;41.822;23.564;2023-07-02T15:01:49;-11652.31;;;25.90;64.24
10145;BME280;5113;41.822;23.564;2023-07-02T15:04:56;-11655.41;;;26.01;64.39
10145;BME280;5113;41.822;23.564;2023-07-02T15:08:03;-11674.31;;;26.69;61.24
10145;BME280;5113;41.822;23.564;2023-07-02T15:11:10;-11731.97;;;28.76;55.76
10145;BME280;5113;41.822;23.564;2023-07-02T15:14:16;-11755.13;;;29.60;49.51
10145;BME280;5113;41.822;23.564;2023-07-02T15:17:24;-11650.88;;;25.85;58.83
10145;BME280;5113;41.822;23.564;2023-07-02T15:20:30;-11642.84;;;25.56;60.39
10145;BME280;5113;41.822;23.564;2023-07-02T15:23:37;-11635.91;;;25.31;60.32
10145;BME280;5113;41.822;23.564;2023-07-02T15:26:43;-11645.09;;;25.64;61.87
10145;BME280;5113;41.822;23.564;2023-07-02T15:29:50;-11723.63;;;28.46;58.85
10145;BME280;5113;41.822;23.564;2023-07-02T15:32:57;-11747.34;;;29.32;53.94
10145;BME280;5113;41.822;23.564;2023-07-02T15:36:04;-11682.66;;;26.99;61.18
10145;BME280;5113;41.822;23.564;2023-07-02T15:39:12;-11818.44;;;31.87;50.42
10145;BME280;5113;41.822;23.564;2023-07-02T15:42:19;-11811.38;;;31.62;50.05
10145;BME280;5113;41.822;23.564;2023-07-02T15:45:26;-11800.47;;;31.23;51.23
10145;BME280;5113;41.822;23.564;2023-07-02T15:48:33;-11688.72;;;27.21;62.33
10145;BME280;5113;41.822;23.564;2023-07-02T15:51:40;-11647.94;;;25.74;70.56
10145;BME280;5113;41.822;23.564;2023-07-02T15:54:47;-11646.66;;;25.70;74.43
10145;BME280;5113;41.822;23.564;2023-07-02T15:57:54;-11640.00;;;25.46;79.44
10145;BME280;5113;41.822;23.564;2023-07-02T16:01:09;-11629.16;;;25.07;78.97
10145;BME280;5113;41.822;23.564;2023-07-02T16:04:17;-11634.22;;;25.25;78.56
10145;BME280;5113;41.822;23.564;2023-07-02T16:07:24;-11613.03;;;24.49;90.75
10145;BME280;5113;41.822;23.564;2023-07-02T16:10:30;-11609.81;;;24.37;89.49